Time;durP1;ratioP1;P1;durP2;ratioP2;P2;SDS_P1;SDS_P2;PMS_P1;PMS_P2;Temp;Humidity;BMP_temperature;BMP_pressure;BME280_temperature;BME280_humidity;BME280_pressure;Samples;Min_cycle;Max_cycle;Signal;HPM_P1;HPM_P2
2022/11/29 00:00:32;;;;;;;82.60;40.80;;;;;;;4.26;100.00;101271.78;5105066;27;20035;-69
2022/11/29 00:02:57;;;;;;;90.50;42.45;;;;;;;4.18;100.00;101268.91;5102350;28;20391;-69
2022/11/29 00:05:23;;;;;;;97.57;43.97;;;;;;;4.19;100.00;101261.09;5106146;28;20099;-69
2022/11/29 00:07:48;;;;;;;108.07;47.92;;;;;;;4.17;100.00;101262.75;5102728;28;20124;-70
2022/11/29 00:10:14;;;;;;;85.40;44.10;;;;;;;4.18;100.00;101268.91;5105437;28;20024;-69
2022/11/29 00:12:39;;;;;;;67.55;38.40;;;;;;;4.18;100.00;101272.41;5103913;28;20027;-69
2022/11/29 00:15:05;;;;;;;72.63;39.63;;;;;;;4.17;100.00;101270.59;5103711;28;20032;-69
2022/11/29 00:17:31;;;;;;;77.70;40.60;;;;;;;4.19;100.00;101273.28;5105452;28;20040;-70
2022/11/29 00:19:56;;;;;;;77.68;41.35;;;;;;;4.17;100.00;101278.47;5102387;28;20376;-70
2022/11/29 00:22:23;;;;;;;87.07;43.38;;;;;;;4.17;100.00;101275.84;5105781;28;20042;-70
2022/11/29 00:24:49;;;;;;;85.40;44.15;;;;;;;4.22;100.00;101280.38;5102506;28;20032;-69
2022/11/29 00:27:15;;;;;;;101.93;47.55;;;;;;;4.25;100.00;101280.47;5104896;28;20157;-70
2022/11/29 00:29:40;;;;;;;81.30;42.60;;;;;;;4.34;100.00;101280.84;5103392;28;20126;-70
2022/11/29 00:32:06;;;;;;;83.97;42.42;;;;;;;4.37;100.00;101280.94;5103803;28;20024;-71
2022/11/29 00:34:31;;;;;;;95.75;43.47;;;;;;;4.39;100.00;101286.22;5104673;28;20040;-70
2022/11/29 00:36:57;;;;;;;94.28;43.92;;;;;;;4.39;100.00;101284.50;5102363;28;20032;-70
2022/11/29 00:39:23;;;;;;;77.93;40.47;;;;;;;4.38;100.00;101287.06;5105631;28;20031;-70
2022/11/29 00:41:48;;;;;;;81.28;41.25;;;;;;;4.41;100.00;101288.03;5100840;28;20386;-70
2022/11/29 00:44:14;;;;;;;81.35;41.88;;;;;;;4.42;100.00;101287.22;5104633;28;20038;-70
2022/11/29 00:46:39;;;;;;;91.20;44.20;;;;;;;4.43;100.00;101291.63;5103208;28;20020;-70
2022/11/29 00:49:05;;;;;;;77.22;40.55;;;;;;;4.46;100.00;101290.84;5103138;28;20031;-70
2022/11/29 00:51:30;;;;;;;83.57;42.88;;;;;;;4.40;100.00;101290.59;5104968;28;20061;-70
2022/11/29 00:53:56;;;;;;;89.28;44.55;;;;;;;4.39;100.00;101283.59;5101800;28;20577;-72
2022/11/29 00:56:21;;;;;;;87.40;42.17;;;;;;;4.32;100.00;101278.13;5105180;28;20115;-71
2022/11/29 00:58:48;;;;;;;105.05;44.97;;;;;;;4.29;100.00;101270.16;5102287;28;20024;-71
2022/11/29 01:01:14;;;;;;;99.90;41.75;;;;;;;4.27;100.00;101279.69;5104026;28;20024;-71
2022/11/29 01:03:39;;;;;;;122.72;44.40;;;;;;;4.27;100.00;101274.47;5103064;28;20367;-72
2022/11/29 01:06:08;;;;;;;99.57;42.05;;;;;;;4.27;100.00;101284.06;5103034;28;20043;-71
2022/11/29 01:08:33;;;;;;;120.47;43.78;;;;;;;4.26;100.00;101284.88;5103849;28;20028;-70
2022/11/29 01:11:03;;;;;;;117.07;45.90;;;;;;;4.24;100.00;101284.81;5101884;28;20020;-71
2022/11/29 01:13:29;;;;;;;123.20;47.20;;;;;;;4.26;100.00;101282.25;5104453;27;20031;-70
2022/11/29 01:15:56;;;;;;;121.22;46.15;;;;;;;4.29;100.00;101285.88;5101327;28;20073;-70
2022/11/29 01:18:22;;;;;;;125.60;43.83;;;;;;;4.28;100.00;101285.81;5097312;28;20485;-69
2022/11/29 01:20:55;;;;;;;144.07;47.10;;;;;;;4.25;100.00;101288.31;5104653;28;20135;-69
2022/11/29 01:23:21;;;;;;;117.13;48.03;;;;;;;4.27;100.00;101290.16;5095953;28;20056;-70
2022/11/29 01:25:55;;;;;;;124.28;47.67;;;;;;;4.30;100.00;101294.63;5104242;28;20066;-70
2022/11/29 01:28:20;;;;;;;123.97;48.47;;;;;;;4.31;100.00;101297.31;5101241;28;20030;-70
2022/11/29 01:30:46;;;;;;;127.82;50.25;;;;;;;4.34;100.00;101296.53;5104284;28;20027;-70
2022/11/29 01:33:11;;;;;;;137.20;48.63;;;;;;;4.31;100.00;101299.00;5102365;28;20031;-70
2022/11/29 01:35:37;;;;;;;228.90;54.90;;;;;;;4.30;100.00;101299.88;5102830;28;20089;-70
2022/11/29 01:38:02;;;;;;;205.77;52.53;;;;;;;4.28;100.00;101306.75;5103711;28;20107;-69
2022/11/29 01:40:28;;;;;;;281.23;53.15;;;;;;;4.24;100.00;101299.63;5101401;28;20050;-70
2022/11/29 01:42:53;;;;;;;229.50;51.00;;;;;;;4.19;100.00;101305.59;5104897;28;20035;-70
2022/11/29 01:45:24;;;;;;;131.27;44.88;;;;;;;4.24;100.00;101310.09;5101403;28;20028;-69
2022/11/29 01:47:53;;;;;;;237.15;50.47;;;;;;;4.21;100.00;101315.22;5104336;28;20061;-71
2022/11/29 01:50:19;;;;;;;239.15;52.97;;;;;;;4.22;100.00;101317.88;5101196;28;20104;-71
2022/11/29 01:52:46;;;;;;;243.50;52.30;;;;;;;4.20;100.00;101316.94;5103909;28;20055;-70
2022/11/29 01:55:12;;;;;;;269.40;54.05;;;;;;;4.17;100.00;101312.47;5102215;28;20039;-70
2022/11/29 01:57:39;;;;;;;281.45;52.88;;;;;;;4.12;100.00;101316.66;5102987;28;20360;-71
2022/11/29 02:00:14;;;;;;;285.45;52.53;;;;;;;4.07;100.00;101325.16;5103212;28;20016;-70
2022/11/29 02:02:52;;;;;;;237.45;48.78;;;;;;;4.04;100.00;101327.66;5102751;28;20024;-70
2022/11/29 02:05:18;;;;;;;260.70;52.28;;;;;;;4.05;100.00;101332.97;5101311;28;20035;-70
2022/11/29 02:07:47;;;;;;;230.63;52.05;;;;;;;4.09;100.00;101340.09;5103567;28;20028;-71
2022/11/29 02:10:14;;;;;;;220.30;53.83;;;;;;;4.12;100.00;101339.31;5102178;28;20153;-70
2022/11/29 02:13:00;;;;;;;269.73;57.75;;;;;;;4.14;100.00;101335.03;5102703;28;20475;-69
2022/11/29 02:15:44;;;;;;;231.57;56.05;;;;;;;4.21;100.00;101346.63;5096813;28;20036;-70
2022/11/29 02:18:14;;;;;;;258.30;59.60;;;;;;;4.26;100.00;101345.06;5100702;28;20056;-70
2022/11/29 02:20:54;;;;;;;234.13;60.15;;;;;;;4.33;100.00;101339.25;5102388;28;20100;-70
2022/11/29 02:23:20;;;;;;;260.05;62.50;;;;;;;4.40;100.00;101350.81;5104238;28;20127;-70
2022/11/29 02:25:56;;;;;;;288.73;66.90;;;;;;;4.42;100.00;101349.16;5103445;28;20495;-70
2022/11/29 02:28:39;;;;;;;218.48;59.03;;;;;;;4.46;100.00;101346.72;5100569;28;20028;-70
2022/11/29 02:31:32;;;;;;;203.73;61.80;;;;;;;4.46;100.00;101354.56;5103436;28;20039;-70
2022/11/29 02:34:00;;;;;;;;;;;;;;;4.47;100.00;101355.44;5102128;28;20035;-70
2022/11/29 02:36:54;;;;;;;244.38;64.28;;;;;;;4.45;100.00;101347.53;5106491;28;19912;-70
2022/11/29 02:39:19;;;;;;;;;;;;;;;4.44;100.00;101353.63;5107636;28;20028;-70
2022/11/29 02:41:50;;;;;;;201.20;62.70;;;;;;;4.43;100.00;101346.59;5105142;28;20358;-70
2022/11/29 02:44:31;;;;;;;271.90;67.20;;;;;;;4.42;100.00;101350.06;5107065;28;20284;-71
2022/11/29 02:47:23;;;;;;;128.07;57.17;;;;;;;4.45;100.00;101346.66;5100851;28;20024;-71
2022/11/29 02:50:18;;;;;;;212.57;62.63;;;;;;;4.42;100.00;101346.56;5104618;28;20028;-69
2022/11/29 02:52:46;;;;;;;124.65;55.40;;;;;;;4.40;100.00;101345.59;5103846;28;20111;-70
2022/11/29 02:55:28;;;;;;;173.45;61.42;;;;;;;4.36;100.00;101350.72;5105705;28;20020;-70
2022/11/29 02:57:57;;;;;;;185.45;59.03;;;;;;;4.34;100.00;101352.38;5100301;28;20093;-70
2022/11/29 03:00:23;;;;;;;184.60;58.20;;;;;;;4.34;100.00;101356.75;5099674;28;20111;-70
2022/11/29 03:02:51;;;;;;;156.52;56.33;;;;;;;4.32;100.00;101361.00;5107150;28;20048;-75
2022/11/29 03:05:35;;;;;;;219.77;61.38;;;;;;;4.27;100.00;101367.81;5103327;28;20032;-75
2022/11/29 03:08:11;;;;;;;245.75;62.10;;;;;;;4.24;100.00;101365.03;5101860;28;20034;-76
2022/11/29 03:11:08;;;;;;;165.65;58.35;;;;;;;4.25;100.00;101364.22;5105913;28;20031;-75
2022/11/29 03:13:36;;;;;;;161.70;57.90;;;;;;;4.23;100.00;101368.53;5102283;28;20030;-75
2022/11/29 03:16:15;;;;;;;219.90;60.25;;;;;;;4.19;100.00;101372.72;5106314;28;20075;-75
2022/11/29 03:18:57;;;;;;;216.35;60.05;;;;;;;4.15;100.00;101374.34;5105423;28;20089;-75
2022/11/29 03:21:47;;;;;;;178.93;57.78;;;;;;;4.15;100.00;101378.66;5099357;28;20028;-75
2022/11/29 03:24:24;;;;;;;193.10;59.60;;;;;;;4.10;100.00;101375.00;5104179;28;20095;-75
2022/11/29 03:26:59;;;;;;;139.50;54.70;;;;;;;4.05;100.00;101382.66;5103716;27;20032;-75
2022/11/29 03:29:57;;;;;;;203.48;58.90;;;;;;;3.97;100.00;101384.97;5099529;28;20027;-75
2022/11/29 03:32:50;;;;;;;210.80;59.53;;;;;;;3.90;100.00;101384.66;5097044;28;20040;-76
2022/11/29 03:35:36;;;;;;;;;;;;;;;3.89;100.00;101391.63;5105624;28;20067;-75
2022/11/29 03:38:25;;;;;;;231.05;59.60;;;;;;;3.82;100.00;101387.88;5100480;28;19919;-76
2022/11/29 03:41:04;;;;;;;249.55;62.53;;;;;;;3.81;100.00;101393.91;5103291;28;20043;-75
2022/11/29 03:43:42;;;;;;;164.27;55.85;;;;;;;3.81;100.00;101388.69;5100383;28;20077;-75
2022/11/29 03:46:19;;;;;;;246.25;60.28;;;;;;;3.79;100.00;101400.81;5105139;28;20038;-75
2022/11/29 03:48:48;;;;;;;223.13;59.47;;;;;;;3.77;100.00;101396.34;5105728;28;20382;-76
2022/11/29 03:51:27;;;;;;;232.23;59.40;;;;;;;3.80;100.00;101404.31;5104258;28;20070;-76
2022/11/29 03:53:58;;;;;;;261.13;63.33;;;;;;;3.79;100.00;101413.91;5098930;28;20024;-76
2022/11/29 03:56:30;;;;;;;310.83;65.88;;;;;;;3.79;100.00;101406.06;5098923;28;20475;-75
2022/11/29 03:59:11;;;;;;;209.18;59.03;;;;;;;3.78;100.00;101406.88;5099043;28;20095;-74
2022/11/29 04:01:46;;;;;;;242.57;60.97;;;;;;;3.78;100.00;101411.22;5101692;28;20071;-75
2022/11/29 04:04:56;;;;;;;284.65;65.32;;;;;;;3.76;100.00;101413.78;5104191;28;20031;-75
2022/11/29 04:07:27;;;;;;;256.52;64.00;;;;;;;3.75;100.00;101417.22;5105961;28;20420;-74
2022/11/29 04:10:16;;;;;;;197.32;58.30;;;;;;;3.77;100.00;101425.13;5098638;28;20028;-71
2022/11/29 04:13:08;;;;;;;183.35;59.92;;;;;;;3.77;100.00;101422.50;5103004;28;20035;-71
2022/11/29 04:15:45;;;;;;;194.63;60.22;;;;;;;3.77;100.00;101428.66;5100623;28;20024;-76
2022/11/29 04:18:25;;;;;;;158.80;57.25;;;;;;;3.75;100.00;101427.66;5103853;28;20044;-75
2022/11/29 04:21:12;;;;;;;240.00;64.45;;;;;;;3.74;100.00;101435.47;5105703;28;20569;-75
2022/11/29 04:24:20;;;;;;;221.73;61.80;;;;;;;3.71;100.00;101427.50;5101679;28;20035;-72
2022/11/29 04:26:48;;;;;;;171.85;56.13;;;;;;;3.69;100.00;101427.44;5104053;28;20035;-71
2022/11/29 04:29:54;;;;;;;153.60;57.97;;;;;;;3.71;100.00;101430.09;5103297;28;20501;-75
2022/11/29 04:32:42;;;;;;;161.45;58.13;;;;;;;3.64;100.00;101431.56;5104947;28;20080;-75
2022/11/29 04:35:46;;;;;;;164.48;57.95;;;;;;;3.62;100.00;101431.50;5101332;28;20360;-75
2022/11/29 04:38:24;;;;;;;190.32;58.42;;;;;;;3.61;100.00;101429.72;5102345;28;20531;-75
2022/11/29 04:41:22;;;;;;;122.35;54.47;;;;;;;3.61;100.00;101434.03;5102386;28;20031;-74
2022/11/29 04:43:47;;;;;;;146.18;54.88;;;;;;;3.57;100.00;101433.03;5104032;28;20080;-75
2022/11/29 04:46:25;;;;;;;227.95;64.05;;;;;;;3.54;100.00;101445.06;5103485;28;20480;-76
2022/11/29 04:49:13;;;;;;;188.20;58.42;;;;;;;3.49;100.00;101443.19;5104955;28;20031;-75
2022/11/29 04:52:03;;;;;;;135.15;53.08;;;;;;;3.45;100.00;101449.09;5101600;28;20024;-75
2022/11/29 04:54:47;;;;;;;169.00;56.08;;;;;;;3.43;100.00;101445.50;5098693;28;20091;-76
2022/11/29 04:57:31;;;;;;;143.35;54.55;;;;;;;3.40;100.00;101444.50;5103308;28;20378;-76
2022/11/29 05:00:12;;;;;;;151.45;53.83;;;;;;;3.38;100.00;101444.44;5096856;28;20142;-69
2022/11/29 05:02:53;;;;;;;137.35;54.55;;;;;;;3.47;100.00;101451.78;5101157;28;20024;-69
2022/11/29 05:05:39;;;;;;;115.57;52.47;;;;;;;3.52;100.00;101447.63;5102448;28;20024;-69
2022/11/29 05:08:28;;;;;;;169.80;57.65;;;;;;;3.56;100.00;101459.13;5100126;28;20028;-70
2022/11/29 05:11:23;;;;;;;145.88;56.63;;;;;;;3.61;100.00;101468.94;5097510;28;20527;-70
2022/11/29 05:14:09;;;;;;;223.27;65.38;;;;;;;3.56;100.00;101469.59;5103784;28;20063;-70
2022/11/29 05:16:45;;;;;;;196.88;62.67;;;;;;;3.47;100.00;101475.31;5099897;28;20051;-70
2022/11/29 05:20:03;;;;;;;132.98;54.28;;;;;;;3.56;100.00;101480.03;5103139;28;20040;-69
2022/11/29 05:22:31;;;;;;;136.75;56.30;;;;;;;3.62;100.00;101489.03;5019203;28;20140;-70
2022/11/29 05:25:18;;;;;;;130.30;53.15;;;;;;;3.71;100.00;101491.13;5085500;28;20032;-70
2022/11/29 05:27:55;;;;;;;151.70;57.03;;;;;;;3.69;100.00;101491.91;5102255;28;20087;-69
2022/11/29 05:30:24;;;;;;;256.23;65.40;;;;;;;3.63;100.00;101495.16;5101679;28;20043;-70
2022/11/29 05:32:59;;;;;;;153.15;54.95;;;;;;;3.62;100.00;101501.22;5104341;28;20020;-70
2022/11/29 05:35:48;;;;;;;117.78;51.63;;;;;;;3.69;100.00;101507.63;5097316;28;20027;-70
2022/11/29 05:38:22;;;;;;;143.95;54.63;;;;;;;3.67;100.00;101504.94;5101790;28;20024;-69
2022/11/29 05:41:04;;;;;;;152.32;55.50;;;;;;;3.73;100.00;101499.97;5101846;28;20023;-70
2022/11/29 05:43:49;;;;;;;138.30;55.05;;;;;;;3.74;100.00;101508.69;5098158;28;20417;-70
2022/11/29 05:46:18;;;;;;;171.55;57.90;;;;;;;3.74;100.00;101513.91;5102195;28;20036;-70
2022/11/29 05:49:22;;;;;;;114.80;53.00;;;;;;;3.79;100.00;101517.63;5103387;28;20030;-70
2022/11/29 05:52:03;;;;;;;264.00;66.03;;;;;;;3.77;100.00;101512.34;5078474;28;20075;-70
2022/11/29 05:54:45;;;;;;;91.75;50.58;;;;;;;3.82;100.00;101518.66;5097550;28;20024;-71
2022/11/29 05:57:20;;;;;;;141.98;57.15;;;;;;;3.83;100.00;101523.06;5100730;28;20042;-70
2022/11/29 05:59:48;;;;;;;115.47;54.17;;;;;;;3.81;100.00;101523.81;5102095;28;20035;-70
2022/11/29 06:02:38;;;;;;;88.15;50.33;;;;;;;3.83;100.00;101525.69;5106087;28;20031;-75
2022/11/29 06:05:18;;;;;;;131.18;56.20;;;;;;;3.83;100.00;101524.78;5103409;28;20055;-75
2022/11/29 06:07:52;;;;;;;106.32;50.83;;;;;;;3.88;100.00;101525.88;5106451;28;20051;-75
2022/11/29 06:10:23;;;;;;;154.35;58.35;;;;;;;3.87;100.00;101534.53;5107590;28;20035;-75
2022/11/29 06:13:20;;;;;;;115.30;53.95;;;;;;;3.90;100.00;101533.78;5105775;28;20028;-76
2022/11/29 06:15:52;;;;;;;150.05;56.70;;;;;;;3.90;100.00;101546.84;5068859;28;20036;-75
2022/11/29 06:18:49;;;;;;;141.02;56.47;;;;;;;3.88;100.00;101548.53;5105432;27;20048;-75
2022/11/29 06:21:39;;;;;;;158.13;56.53;;;;;;;3.81;100.00;101555.19;5105461;28;20028;-75
2022/11/29 06:24:20;;;;;;;131.73;53.28;;;;;;;3.74;100.00;101547.91;5102891;28;20028;-75
2022/11/29 06:27:07;;;;;;;134.85;53.25;;;;;;;3.73;100.00;101560.13;5106010;28;20181;-75
2022/11/29 06:29:56;;;;;;;105.68;51.83;;;;;;;3.71;100.00;101561.75;5101983;28;20043;-75
2022/11/29 06:32:33;;;;;;;106.13;52.70;;;;;;;3.71;100.00;101566.97;5104907;28;20073;-75
2022/11/29 06:35:08;;;;;;;120.35;54.38;;;;;;;3.73;100.00;101567.97;5090377;28;20103;-73
2022/11/29 06:37:43;;;;;;;84.88;50.92;;;;;;;3.74;100.00;101585.44;5096274;28;20071;-73
2022/11/29 06:40:11;;;;;;;89.75;51.03;;;;;;;3.76;100.00;101594.25;5100241;28;20020;-73
2022/11/29 06:42:36;;;;;;;86.55;51.63;;;;;;;3.75;100.00;101588.94;5099802;28;20097;-72
2022/11/29 06:45:02;;;;;;;84.32;51.90;;;;;;;3.75;100.00;101592.44;5098610;28;20469;-73
2022/11/29 06:47:36;;;;;;;88.88;51.15;;;;;;;3.74;100.00;101595.91;5100035;28;20092;-71
2022/11/29 06:50:24;;;;;;;85.55;51.53;;;;;;;3.78;100.00;101595.19;5100721;28;20040;-73
2022/11/29 06:53:10;;;;;;;86.95;52.08;;;;;;;3.87;100.00;101597.31;5100144;28;20379;-72
2022/11/29 06:55:47;;;;;;;95.60;53.28;;;;;;;3.90;100.00;101596.56;5106586;28;20023;-73
2022/11/29 06:58:36;;;;;;;85.28;51.05;;;;;;;3.91;100.00;101603.59;5099911;28;20027;-71
2022/11/29 07:01:05;;;;;;;78.78;49.67;;;;;;;3.87;100.00;101601.66;5100844;28;20086;-73
2022/11/29 07:03:57;;;;;;;83.82;50.15;;;;;;;3.87;100.00;101607.78;5102697;28;20024;-74
2022/11/29 07:06:26;;;;;;;87.70;51.25;;;;;;;3.83;100.00;101612.00;5099969;28;20028;-76
2022/11/29 07:09:08;;;;;;;84.13;49.42;;;;;;;3.87;100.00;101607.78;5099395;28;20375;-74
2022/11/29 07:11:34;;;;;;;96.30;50.17;;;;;;;3.88;100.00;101608.69;5099502;28;20023;-76
2022/11/29 07:14:00;;;;;;;90.45;49.63;;;;;;;3.92;100.00;101610.63;5082268;28;20078;-73
2022/11/29 07:16:38;;;;;;;94.95;51.83;;;;;;;3.89;100.00;101616.59;5102873;28;20040;-75
2022/11/29 07:19:33;;;;;;;100.18;51.55;;;;;;;3.86;100.00;101610.31;5099176;28;20048;-74
2022/11/29 07:22:08;;;;;;;104.35;52.13;;;;;;;3.89;100.00;101620.91;5069144;28;20036;-72
2022/11/29 07:24:45;;;;;;;119.95;54.00;;;;;;;3.92;100.00;101621.09;5100853;28;20036;-76
2022/11/29 07:27:18;;;;;;;104.53;51.83;;;;;;;3.99;100.00;101628.34;5099792;28;20039;-75
2022/11/29 07:29:49;;;;;;;130.77;53.80;;;;;;;3.97;100.00;101636.13;5097973;28;20032;-80
2022/11/29 07:32:55;;;;;;;118.35;54.17;;;;;;;4.02;100.00;101646.81;5102225;28;20028;-73
2022/11/29 07:35:44;;;;;;;116.30;53.15;;;;;;;4.02;100.00;101646.81;5098008;28;20658;-72
2022/11/29 07:38:25;;;;;;;122.03;51.67;;;;;;;4.09;100.00;101645.34;5099116;28;20422;-72
2022/11/29 07:41:15;;;;;;;136.43;55.25;;;;;;;4.01;100.00;101650.25;5095683;28;20028;-70
2022/11/29 07:44:03;;;;;;;122.35;52.03;;;;;;;3.98;100.00;101648.41;5097553;28;20081;-70
2022/11/29 07:46:28;;;;;;;143.75;55.83;;;;;;;3.98;100.00;101653.63;5099504;28;20418;-73
2022/11/29 07:48:54;;;;;;;147.15;54.67;;;;;;;3.97;100.00;101653.56;5100397;28;20024;-71
2022/11/29 07:51:19;;;;;;;119.45;51.92;;;;;;;4.03;100.00;101652.94;5098133;28;20036;-74
2022/11/29 07:53:45;;;;;;;118.45;52.13;;;;;;;4.09;100.00;101654.13;5099894;28;20032;-73
2022/11/29 07:56:11;;;;;;;123.40;53.92;;;;;;;4.15;100.00;101662.22;5093345;28;20065;-72
2022/11/29 07:58:37;;;;;;;141.75;56.47;;;;;;;4.17;100.00;101660.56;5100371;28;20168;-73
2022/11/29 08:01:02;;;;;;;129.60;53.88;;;;;;;4.19;100.00;101665.84;5097930;28;20122;-72
2022/11/29 08:03:28;;;;;;;126.70;53.75;;;;;;;4.18;100.00;101659.75;5094730;28;20088;-71
2022/11/29 08:05:53;;;;;;;148.90;55.65;;;;;;;4.26;100.00;101659.19;5097834;28;20462;-72
2022/11/29 08:08:19;;;;;;;193.63;58.55;;;;;;;4.26;100.00;101659.19;5096676;28;20035;-74
2022/11/29 08:10:44;;;;;;;165.13;55.47;;;;;;;4.30;100.00;101664.59;5096629;28;20380;-71
2022/11/29 08:13:10;;;;;;;197.45;59.63;;;;;;;4.30;100.00;101672.47;5103664;28;20185;-72
2022/11/29 08:15:35;;;;;;;174.60;59.22;;;;;;;4.32;100.00;101665.56;5098805;28;20489;-77
2022/11/29 08:18:01;;;;;;;190.32;58.22;;;;;;;4.29;100.00;101665.41;5097683;28;20043;-73
2022/11/29 08:20:27;;;;;;;151.68;55.60;;;;;;;4.26;100.00;101669.66;5098452;28;20038;-76
2022/11/29 08:22:57;;;;;;;161.52;57.13;;;;;;;4.28;100.00;101675.81;5097808;28;20027;-77
2022/11/29 08:25:23;;;;;;;192.38;57.92;;;;;;;4.28;100.00;101673.22;5098167;28;20061;-74
2022/11/29 08:27:49;;;;;;;128.23;54.42;;;;;;;4.28;100.00;101678.44;5074674;28;20127;-81
2022/11/29 08:30:17;;;;;;;179.10;58.55;;;;;;;4.30;100.00;101676.81;5093137;28;20535;-73
2022/11/29 08:32:43;;;;;;;145.77;55.33;;;;;;;4.30;100.00;101674.19;5100555;28;20027;-72
2022/11/29 08:35:09;;;;;;;135.00;54.92;;;;;;;4.34;100.00;101681.34;5098784;28;20035;-72
2022/11/29 08:37:34;;;;;;;166.98;56.00;;;;;;;4.35;100.00;101683.13;5096345;28;20032;-72
2022/11/29 08:39:59;;;;;;;196.43;58.70;;;;;;;4.40;100.00;101680.69;5099196;28;20482;-74
2022/11/29 08:42:25;;;;;;;169.35;58.65;;;;;;;4.40;100.00;101678.06;5098368;28;20031;-73
2022/11/29 08:44:50;;;;;;;204.98;60.15;;;;;;;4.41;100.00;101686.00;5097359;28;20024;-73
2022/11/29 08:50:02;;;;;;;167.05;58.83;;;;;;;4.44;100.00;101696.63;5098372;28;20049;-72
2022/11/29 08:55:21;;;;;;;200.07;61.58;;;;;;;4.49;100.00;101695.09;5100768;28;20135;-72
2022/11/29 08:57:47;;;;;;;187.57;58.92;;;;;;;4.54;100.00;101704.03;5104118;28;20499;-70
2022/11/29 09:00:14;;;;;;;161.05;58.05;;;;;;;4.57;100.00;101702.38;5102217;28;20059;-73
2022/11/29 09:02:39;;;;;;;147.63;57.22;;;;;;;4.61;100.00;101706.91;5105396;28;20023;-70
2022/11/29 09:05:05;;;;;;;181.32;60.03;;;;;;;4.61;100.00;101696.44;5097420;28;20028;-74
2022/11/29 09:07:31;;;;;;;233.02;60.58;;;;;;;4.68;100.00;101696.75;5104770;28;20067;-70
2022/11/29 09:09:57;;;;;;;173.82;58.42;;;;;;;4.71;100.00;101706.47;5102573;28;20020;-76
2022/11/29 09:12:22;;;;;;;256.63;60.40;;;;;;;4.73;100.00;101710.03;5103173;28;20030;-73
2022/11/29 09:14:48;;;;;;;219.48;58.60;;;;;;;4.75;100.00;101718.88;5104080;28;20111;-71
2022/11/29 09:17:13;;;;;;;219.60;57.95;;;;;;;4.74;100.00;101711.84;5101819;28;20031;-70
2022/11/29 09:19:38;;;;;;;231.55;59.58;;;;;;;4.81;100.00;101713.88;5104802;28;20448;-70
2022/11/29 09:22:03;;;;;;;267.55;60.45;;;;;;;4.82;100.00;101712.16;5100332;28;20032;-72
2022/11/29 09:24:29;;;;;;;261.08;57.97;;;;;;;4.78;100.00;101724.25;5104000;28;20555;-73
2022/11/29 09:26:55;;;;;;;297.27;62.38;;;;;;;4.87;100.00;101723.72;5102684;28;20032;-73
2022/11/29 09:29:20;;;;;;;312.60;61.72;;;;;;;4.91;100.00;101719.50;5102809;28;20081;-72
2022/11/29 09:31:45;;;;;;;245.30;58.47;;;;;;;4.91;100.00;101729.97;5103954;28;20080;-74
2022/11/29 09:34:12;;;;;;;282.85;59.45;;;;;;;4.96;100.00;101726.72;5101115;28;20114;-72
2022/11/29 09:36:39;;;;;;;321.02;62.10;;;;;;;5.09;100.00;101733.38;5104802;28;20375;-72
2022/11/29 09:39:04;;;;;;;327.88;65.82;;;;;;;5.09;100.00;101736.00;5101343;28;20081;-72
2022/11/29 09:41:41;;;;;;;255.95;58.08;;;;;;;5.10;100.00;101748.28;5103838;28;20031;-72
2022/11/29 09:44:15;;;;;;;259.48;56.50;;;;;;;5.11;100.00;101744.81;5097338;28;20024;-70
2022/11/29 09:46:56;;;;;;;247.20;54.00;;;;;;;5.09;100.00;101756.06;5097972;28;20036;-73
2022/11/29 09:49:30;;;;;;;278.63;56.22;;;;;;;5.17;100.00;101755.56;5102858;28;20032;-73
2022/11/29 09:52:21;;;;;;;235.48;50.92;;;;;;;5.28;100.00;101762.97;5103159;28;20035;-73
2022/11/29 09:54:48;;;;;;;213.82;52.90;;;;;;;5.32;100.00;101757.91;5098012;28;20020;-73
2022/11/29 09:57:16;;;;;;;231.18;49.72;;;;;;;5.36;100.00;101759.81;5104042;28;20031;-73
2022/11/29 09:59:46;;;;;;;195.52;46.75;;;;;;;5.39;100.00;101762.56;5101106;28;20111;-73
2022/11/29 10:02:17;;;;;;;247.75;51.83;;;;;;;5.46;100.00;101758.47;5103998;28;20041;-70
2022/11/29 10:05:07;;;;;;;171.85;40.85;;;;;;;5.54;100.00;101767.50;5096870;28;20049;-71
2022/11/29 10:07:46;;;;;;;240.93;43.17;;;;;;;5.50;100.00;101765.59;5081585;28;20044;-72
2022/11/29 10:10:19;;;;;;;173.82;37.78;;;;;;;5.55;100.00;101766.69;5100018;28;20442;-71
2022/11/29 10:12:52;;;;;;;245.70;44.95;;;;;;;5.53;100.00;101773.63;5098088;28;20027;-73
2022/11/29 10:15:21;;;;;;;217.93;44.40;;;;;;;5.52;100.00;101763.03;5091712;28;20063;-79
2022/11/29 10:18:11;;;;;;;140.45;38.75;;;;;;;5.53;100.00;101764.81;5097903;28;20436;-73
2022/11/29 10:20:40;;;;;;;194.43;41.58;;;;;;;5.50;100.00;101759.47;5094003;28;20540;-78
2022/11/29 10:23:21;;;;;;;159.10;36.60;;;;;;;5.67;100.00;101762.75;5097327;28;20065;-72
2022/11/29 10:25:50;;;;;;;139.35;35.00;;;;;;;5.66;100.00;101763.59;5095403;28;20032;-77
2022/11/29 10:28:21;;;;;;;176.48;34.85;;;;;;;5.76;100.00;101757.84;5092917;28;20527;-70
2022/11/29 10:30:48;;;;;;;179.73;35.05;;;;;;;5.71;100.00;101757.69;5093448;28;20028;-71
2022/11/29 10:33:24;;;;;;;185.18;35.17;;;;;;;5.73;100.00;101758.63;5092140;28;20081;-65
2022/11/29 10:35:55;;;;;;;169.75;35.67;;;;;;;5.73;100.00;101757.75;5098269;28;20040;-71
2022/11/29 10:38:20;;;;;;;177.80;36.03;;;;;;;5.68;100.00;101752.31;5094054;28;20035;-69
2022/11/29 10:40:50;;;;;;;140.20;33.72;;;;;;;5.71;100.00;101754.19;5092846;28;20024;-68
2022/11/29 10:43:15;;;;;;;166.98;35.00;;;;;;;5.75;100.00;101745.56;5096324;28;20073;-68
2022/11/29 10:45:49;;;;;;;176.90;35.90;;;;;;;5.72;100.00;101758.56;5098753;28;20380;-68
2022/11/29 10:48:32;;;;;;;136.98;34.42;;;;;;;5.73;100.00;101758.63;5098813;28;20028;-68
2022/11/29 10:50:58;;;;;;;129.85;35.00;;;;;;;5.71;100.00;101760.31;5100804;28;20486;-68
2022/11/29 10:53:35;;;;;;;179.00;38.17;;;;;;;5.72;100.00;101772.59;5099455;28;20047;-69
2022/11/29 10:56:07;;;;;;;206.88;39.65;;;;;;;5.75;100.00;101766.56;5099052;28;20420;-69
2022/11/29 10:58:33;;;;;;;212.27;39.63;;;;;;;5.80;100.00;101769.38;5099004;28;20378;-69
2022/11/29 11:01:05;;;;;;;173.20;38.47;;;;;;;5.79;100.00;101768.47;5099066;28;20059;-70
2022/11/29 11:03:41;;;;;;;174.35;37.03;;;;;;;5.74;100.00;101764.78;5101786;28;20051;-69
2022/11/29 11:06:38;;;;;;;135.57;35.47;;;;;;;5.75;100.00;101764.84;5105585;28;20020;-68
2022/11/29 11:09:28;;;;;;;112.78;33.20;;;;;;;5.84;100.00;101766.94;5087314;28;20067;-68
2022/11/29 11:12:01;;;;;;;92.60;31.92;;;;;;;5.86;100.00;101770.50;5100750;28;20029;-70
2022/11/29 11:14:26;;;;;;;;;;;;;;;5.99;100.00;101771.00;5107168;28;20023;-69
2022/11/29 11:16:52;;;;;;;97.53;32.13;;;;;;;6.01;100.00;101764.97;5103659;28;19912;-69
2022/11/29 11:19:28;;;;;;;109.90;34.00;;;;;;;6.10;100.00;101764.41;5106989;28;20123;-69
2022/11/29 11:21:56;;;;;;;116.70;34.47;;;;;;;6.13;100.00;101764.56;5099971;28;20081;-69
2022/11/29 11:24:34;;;;;;;93.18;33.65;;;;;;;6.22;100.00;101770.13;5098658;28;20028;-71
2022/11/29 11:27:01;;;;;;;86.85;32.53;;;;;;;6.32;100.00;101765.22;5099153;28;20028;-68
2022/11/29 11:29:41;;;;;;;89.38;33.13;;;;;;;6.26;100.00;101773.75;5105530;28;20031;-69
2022/11/29 11:32:17;;;;;;;90.43;31.52;;;;;;;6.14;100.00;101771.56;5106402;28;20080;-69
2022/11/29 11:34:57;;;;;;;103.80;33.42;;;;;;;6.09;100.00;101770.53;5099402;28;20024;-71
2022/11/29 11:37:31;;;;;;;90.13;31.85;;;;;;;6.06;100.00;101778.28;5101807;28;20032;-70
2022/11/29 11:39:59;;;;;;;85.13;30.63;;;;;;;5.99;100.00;101778.88;5105181;28;20031;-69
2022/11/29 11:42:37;;;;;;;85.63;30.23;;;;;;;5.99;100.00;101781.50;5104480;28;20094;-69